Time;durP1;ratioP1;P1;durP2;ratioP2;P2;SDS_P1;SDS_P2;PMS_P1;PMS_P2;Temp;Humidity;BMP_temperature;BMP_pressure;BME280_temperature;BME280_humidity;BME280_pressure;Samples;Min_cycle;Max_cycle;Signal;HPM_P1;HPM_P2
2023/10/18 00:00:58;;;;;;;7.40;2.80;;;12.50;90.30;;;;;;5003686;28;20041;-75
2023/10/18 00:03:26;;;;;;;13.88;3.30;;;12.50;90.30;;;;;;5010913;28;20077;-75
2023/10/18 00:05:52;;;;;;;6.27;2.90;;;12.40;90.30;;;;;;5013795;28;20033;-76
2023/10/18 00:08:22;;;;;;;10.27;3.15;;;12.40;90.40;;;;;;4998660;28;20487;-76
2023/10/18 00:10:53;;;;;;;10.30;2.70;;;12.40;90.40;;;;;;5009253;28;20030;-76
2023/10/18 00:13:22;;;;;;;12.75;2.97;;;12.50;90.50;;;;;;5007554;28;20041;-75
2023/10/18 00:15:54;;;;;;;10.48;3.47;;;12.40;90.40;;;;;;5015467;28;20029;-76
2023/10/18 00:18:20;;;;;;;7.43;2.60;;;12.50;90.40;;;;;;5007371;28;20060;-76
2023/10/18 00:20:47;;;;;;;12.02;3.45;;;12.50;90.40;;;;;;5018656;28;20477;-75
2023/10/18 00:23:19;;;;;;;8.65;3.38;;;12.50;90.50;;;;;;5004895;28;20065;-76
2023/10/18 00:25:47;;;;;;;7.43;3.15;;;12.50;90.50;;;;;;5019543;28;20033;-76
2023/10/18 00:28:13;;;;;;;7.57;2.88;;;12.40;90.60;;;;;;5002746;28;20079;-76
2023/10/18 00:30:39;;;;;;;14.48;3.55;;;12.40;90.60;;;;;;5011309;28;20032;-74
2023/10/18 00:33:06;;;;;;;12.52;3.33;;;12.40;90.70;;;;;;5004757;28;20026;-74
2023/10/18 00:35:36;;;;;;;8.93;3.05;;;12.50;90.70;;;;;;5014702;28;20041;-74
2023/10/18 00:38:04;;;;;;;6.68;3.25;;;12.50;90.70;;;;;;5001708;28;20033;-74
2023/10/18 00:43:20;;;;;;;21.10;3.65;;;12.40;90.80;;;;;;5001720;28;20021;-74
2023/10/18 00:45:54;;;;;;;10.80;3.10;;;12.40;90.90;;;;;;5026420;28;20038;-75
2023/10/18 00:48:33;;;;;;;12.38;3.53;;;12.40;91.00;;;;;;5017813;28;20025;-75
2023/10/18 00:51:01;;;;;;;14.15;3.38;;;12.40;91.10;;;;;;5016640;28;20049;-75
2023/10/18 00:53:33;;;;;;;7.40;2.88;;;12.40;91.10;;;;;;5004056;28;20069;-75
2023/10/18 00:56:05;;;;;;;9.82;3.13;;;12.40;91.10;;;;;;5012521;28;20521;-74
2023/10/18 00:58:32;;;;;;;13.60;3.22;;;12.40;91.10;;;;;;5004227;28;20075;-74
2023/10/18 01:01:09;;;;;;;10.88;3.30;;;12.50;91.10;;;;;;5013774;28;20064;-74
2023/10/18 01:03:42;;;;;;;10.35;3.80;;;12.50;91.10;;;;;;4999183;28;20029;-75
2023/10/18 01:06:17;;;;;;;9.98;2.70;;;12.50;91.10;;;;;;5019658;28;20033;-74
2023/10/18 01:08:45;;;;;;;13.50;3.63;;;12.60;91.10;;;;;;5004100;28;20052;-75
2023/10/18 01:11:11;;;;;;;8.65;3.67;;;12.60;91.00;;;;;;5009901;28;20040;-74
2023/10/18 01:13:47;;;;;;;11.00;4.30;;;12.60;91.10;;;;;;5004148;28;20061;-74
2023/10/18 01:16:14;;;;;;;9.70;3.75;;;12.60;91.10;;;;;;5015046;28;20091;-74
2023/10/18 01:18:43;;;;;;;7.75;2.90;;;12.60;91.00;;;;;;5006203;28;20040;-74
2023/10/18 01:21:14;;;;;;;9.77;3.83;;;12.60;91.10;;;;;;5018884;28;20615;-74
2023/10/18 01:23:42;;;;;;;8.70;3.10;;;12.60;91.10;;;;;;5003049;28;20320;-73
2023/10/18 01:26:13;;;;;;;12.35;3.88;;;12.60;91.10;;;;;;5014466;28;20891;-74
2023/10/18 01:28:39;;;;;;;10.68;3.00;;;12.70;91.10;;;;;;5014291;28;20083;-74
2023/10/18 01:31:06;;;;;;;9.18;3.22;;;12.70;91.10;;;;;;5001846;28;20084;-74
2023/10/18 01:33:39;;;;;;;13.88;3.78;;;12.60;91.00;;;;;;5012946;28;20126;-75
2023/10/18 01:36:11;;;;;;;8.00;3.50;;;12.70;91.10;;;;;;5003301;28;20113;-75
2023/10/18 01:38:42;;;;;;;10.95;3.20;;;12.70;91.00;;;;;;5015868;28;20032;-74
2023/10/18 01:41:09;;;;;;;11.32;3.72;;;12.70;91.10;;;;;;4999353;28;20039;-74
2023/10/18 01:43:39;;;;;;;12.75;3.60;;;12.70;91.10;;;;;;5010826;28;20030;-74
2023/10/18 01:46:09;;;;;;;10.88;4.00;;;12.60;91.10;;;;;;5002625;28;20040;-75
2023/10/18 01:48:38;;;;;;;9.85;3.80;;;12.60;91.20;;;;;;5017607;28;20034;-75
2023/10/18 01:51:06;;;;;;;11.85;3.65;;;12.70;91.30;;;;;;5007545;28;20033;-74
2023/10/18 01:53:33;;;;;;;12.75;3.88;;;12.60;91.30;;;;;;5018031;28;20037;-74
2023/10/18 01:56:01;;;;;;;9.15;3.65;;;12.60;91.40;;;;;;4999357;28;20034;-74
2023/10/18 01:58:30;;;;;;;14.48;3.83;;;12.60;91.50;;;;;;5025698;28;20466;-74
2023/10/18 02:00:59;;;;;;;12.35;4.00;;;12.60;91.50;;;;;;4999338;28;20512;-74
2023/10/18 02:03:36;;;;;;;;;;;;;;;;;;;;;
2023/10/18 02:06:06;;;;;;;11.27;4.25;;;12.60;91.60;;;;;;4998330;28;20051;-74
2023/10/18 02:08:34;;;;;;;14.45;5.00;;;12.60;91.60;;;;;;5010256;28;20160;-74
2023/10/18 02:11:05;;;;;;;12.50;3.50;;;12.50;91.60;;;;;;4990978;28;20463;-73
2023/10/18 02:13:33;;;;;;;13.57;3.90;;;12.50;91.70;;;;;;5014297;28;20052;-74
2023/10/18 02:15:59;;;;;;;12.15;4.38;;;12.50;91.70;;;;;;5001144;28;20080;-74
2023/10/18 02:18:27;;;;;;;15.20;4.35;;;12.50;91.70;;;;;;5015277;28;21492;-73
2023/10/18 02:20:53;;;;;;;9.82;3.75;;;12.40;91.80;;;;;;5002156;28;20045;-74
2023/10/18 02:23:23;;;;;;;7.72;3.90;;;12.40;91.90;;;;;;5009977;28;20018;-74
2023/10/18 02:25:50;;;;;;;8.93;4.00;;;12.40;91.80;;;;;;5000291;28;20029;-73
2023/10/18 02:28:33;;;;;;;11.43;3.85;;;12.40;91.90;;;;;;5016917;28;20053;-73
2023/10/18 02:31:10;;;;;;;11.88;4.47;;;12.40;91.80;;;;;;4999109;28;20030;-73
2023/10/18 02:33:36;;;;;;;18.73;4.22;;;12.40;91.90;;;;;;5014259;28;20029;-75
2023/10/18 02:36:11;;;;;;;8.10;4.07;;;12.40;92.00;;;;;;5000897;28;20025;-75
2023/10/18 02:38:39;;;;;;;9.35;4.40;;;12.30;92.00;;;;;;5012910;28;20041;-74
2023/10/18 02:41:26;;;;;;;8.80;4.20;;;12.30;92.00;;;;;;5008249;28;20064;-74
2023/10/18 02:43:58;;;;;;;12.05;4.63;;;12.30;92.10;;;;;;5011054;28;20064;-73
2023/10/18 02:46:24;;;;;;;10.85;4.82;;;12.40;92.10;;;;;;5005941;28;20408;-76
2023/10/18 02:48:54;;;;;;;10.63;4.32;;;12.30;92.10;;;;;;5015270;28;20034;-74
2023/10/18 02:51:24;;;;;;;11.88;4.85;;;12.30;92.10;;;;;;5008227;28;20043;-75
2023/10/18 02:54:07;;;;;;;11.52;4.65;;;12.30;92.20;;;;;;5009924;28;20104;-74
2023/10/18 02:56:37;;;;;;;13.95;4.97;;;12.30;92.20;;;;;;5009836;28;20693;-73
2023/10/18 02:59:07;;;;;;;10.43;4.38;;;12.30;92.10;;;;;;5008272;28;20128;-75
2023/10/18 03:01:40;;;;;;;10.75;4.88;;;12.30;92.10;;;;;;5010872;28;20026;-76
2023/10/18 03:04:09;;;;;;;10.30;4.43;;;12.30;92.60;;;;;;5001822;28;20417;-74
2023/10/18 03:06:36;;;;;;;11.27;4.32;;;12.30;92.30;;;;;;5014935;28;20025;-75
2023/10/18 03:09:26;;;;;;;9.52;4.75;;;12.30;92.20;;;;;;5004230;28;20025;-75
2023/10/18 03:11:53;;;;;;;;;;;12.20;92.30;;;;;;5010301;28;20033;-73
2023/10/18 03:14:23;;;;;;;10.70;4.10;;;12.30;92.30;;;;;;5004894;28;19953;-73
2023/10/18 03:16:55;;;;;;;15.30;5.30;;;12.30;92.30;;;;;;5007336;28;20033;-75
2023/10/18 03:19:24;;;;;;;9.13;4.45;;;12.30;92.40;;;;;;5005432;28;20785;-76
2023/10/18 03:21:55;;;;;;;14.77;4.75;;;12.30;92.30;;;;;;5014502;28;20053;-75
2023/10/18 03:24:23;;;;;;;14.70;4.22;;;12.30;92.20;;;;;;4998006;28;20037;-75
2023/10/18 03:26:50;;;;;;;7.38;4.30;;;12.30;92.30;;;;;;5014445;28;20029;-75
2023/10/18 03:29:26;;;;;;;11.07;4.60;;;12.30;92.30;;;;;;5009728;28;20053;-75
2023/10/18 03:31:57;;;;;;;12.68;4.65;;;12.30;92.20;;;;;;5018105;28;20482;-74
2023/10/18 03:34:27;;;;;;;12.02;4.90;;;12.40;92.10;;;;;;5015420;28;20056;-75
2023/10/18 03:36:56;;;;;;;11.18;5.30;;;12.40;92.10;;;;;;5014529;28;20083;-75
2023/10/18 03:39:25;;;;;;;9.65;4.32;;;12.40;92.10;;;;;;5007231;28;20049;-75
2023/10/18 03:41:58;;;;;;;15.35;5.47;;;12.40;92.10;;;;;;5015043;28;20037;-75
2023/10/18 03:44:27;;;;;;;11.48;5.38;;;12.40;92.00;;;;;;4999806;28;20034;-75
2023/10/18 03:47:05;;;;;;;13.05;4.72;;;12.40;92.00;;;;;;5018343;28;21606;-75
2023/10/18 03:49:36;;;;;;;12.45;4.88;;;12.40;92.00;;;;;;5007180;28;20045;-75
2023/10/18 03:55:04;;;;;;;11.45;4.63;;;12.50;92.00;;;;;;5001640;28;21576;-75
2023/10/18 03:57:42;;;;;;;20.92;5.55;;;12.40;91.90;;;;;;4999745;28;20033;-75
2023/10/18 04:00:28;;;;;;;11.70;5.07;;;12.40;92.00;;;;;;5004433;28;20041;-75
2023/10/18 04:02:59;;;;;;;9.55;4.57;;;12.40;92.00;;;;;;5020801;28;20517;-75
2023/10/18 04:05:46;;;;;;;15.07;5.03;;;12.40;92.10;;;;;;4993647;28;20107;-75
2023/10/18 04:08:16;;;;;;;9.75;5.18;;;12.40;92.00;;;;;;5015762;28;20037;-76
2023/10/18 04:10:54;;;;;;;9.68;4.72;;;12.50;91.90;;;;;;4999814;28;20114;-75
2023/10/18 04:13:24;;;;;;;9.85;4.65;;;12.50;92.00;;;;;;5018378;28;20094;-75
2023/10/18 04:15:59;;;;;;;15.07;4.70;;;12.50;91.90;;;;;;5008418;28;20114;-75
2023/10/18 04:18:29;;;;;;;9.23;4.65;;;12.50;91.90;;;;;;5014821;28;20038;-76
2023/10/18 04:21:02;;;;;;;8.98;4.72;;;12.50;92.00;;;;;;5008875;28;20037;-76
2023/10/18 04:23:28;;;;;;;11.60;5.18;;;12.50;92.00;;;;;;5017422;28;20025;-76
2023/10/18 04:25:57;;;;;;;12.45;5.45;;;12.50;92.00;;;;;;5003971;28;20084;-75
2023/10/18 04:28:26;;;;;;;10.20;5.28;;;12.50;92.00;;;;;;5017863;28;20083;-75
2023/10/18 04:30:59;;;;;;;9.02;4.80;;;12.50;92.00;;;;;;5001459;28;20424;-76
2023/10/18 04:33:34;;;;;;;16.35;5.05;;;12.40;92.00;;;;;;5023432;28;20112;-75
2023/10/18 04:36:20;;;;;;;10.93;5.38;;;12.50;91.90;;;;;;5004180;28;20034;-76
2023/10/18 04:38:47;;;;;;;11.73;5.05;;;12.50;91.90;;;;;;5016073;28;20026;-76
2023/10/18 04:41:31;;;;;;;9.02;5.00;;;12.50;92.00;;;;;;5003300;28;20060;-75
2023/10/18 04:44:05;;;;;;;12.30;5.38;;;12.50;91.90;;;;;;5016220;28;20033;-76
2023/10/18 04:46:36;;;;;;;12.80;5.53;;;12.50;91.90;;;;;;5003463;28;20059;-76
2023/10/18 04:49:22;;;;;;;10.30;4.93;;;12.40;92.00;;;;;;5017492;28;20061;-75
2023/10/18 04:52:04;;;;;;;13.90;5.13;;;12.40;92.00;;;;;;4997916;28;20037;-76
2023/10/18 04:54:36;;;;;;;10.45;4.78;;;12.40;92.10;;;;;;5018841;28;20037;-76
2023/10/18 04:57:05;;;;;;;13.15;5.45;;;12.40;92.10;;;;;;5001882;28;20033;-75
2023/10/18 04:59:44;;;;;;;13.85;5.80;;;12.30;92.40;;;;;;5018776;28;20041;-75
2023/10/18 05:02:17;;;;;;;10.38;5.28;;;12.30;92.30;;;;;;5006073;28;20064;-75
2023/10/18 05:04:43;;;;;;;11.40;5.68;;;12.30;92.40;;;;;;5013898;28;20461;-75
2023/10/18 05:09:43;;;;;;;9.68;5.43;;;12.20;92.60;;;;;;5019635;28;20362;-75
2023/10/18 05:12:28;;;;;;;11.95;5.60;;;12.20;92.70;;;;;;5000152;28;20584;-75
2023/10/18 05:17:45;;;;;;;15.40;5.75;;;12.10;92.80;;;;;;5000410;28;20375;-76
2023/10/18 05:20:24;;;;;;;11.80;6.10;;;12.20;92.90;;;;;;5008005;28;20486;-76
2023/10/18 05:22:52;;;;;;;13.55;5.30;;;12.10;92.90;;;;;;5002331;28;20038;-75
2023/10/18 05:27:47;;;;;;;12.38;5.90;;;12.00;93.00;;;;;;4996936;28;20054;-75
2023/10/18 05:30:15;;;;;;;11.93;5.40;;;12.10;93.10;;;;;;5016903;28;20073;-75
2023/10/18 05:32:49;;;;;;;13.73;5.88;;;12.00;93.20;;;;;;5004293;28;20037;-75
2023/10/18 05:35:19;;;;;;;17.15;5.53;;;12.00;93.20;;;;;;5015120;28;20045;-75
2023/10/18 05:38:19;;;;;;;13.10;6.22;;;12.00;93.40;;;;;;5000240;28;20124;-75
2023/10/18 05:40:49;;;;;;;14.13;6.00;;;12.00;93.30;;;;;;5011748;28;20041;-74
2023/10/18 05:43:31;;;;;;;11.18;5.18;;;12.00;93.30;;;;;;5005371;28;20040;-75
2023/10/18 05:45:59;;;;;;;15.43;5.80;;;12.00;93.40;;;;;;5013097;28;20130;-74
2023/10/18 05:48:26;;;;;;;12.65;5.63;;;12.00;93.40;;;;;;5005909;28;20112;-75
2023/10/18 05:51:32;;;;;;;12.82;6.43;;;12.00;93.50;;;;;;5010281;28;20021;-75
2023/10/18 05:53:40;;;;;;;8.27;5.45;;;12.00;93.60;;;;;;5001132;28;20033;-75
2023/10/18 05:56:07;;;;;;;14.80;6.55;;;12.00;93.60;;;;;;5013997;28;20029;-74
2023/10/18 05:58:33;;;;;;;11.65;5.80;;;12.00;93.60;;;;;;5001683;28;20025;-75
2023/10/18 06:01:02;;;;;;;14.43;5.45;;;12.00;93.70;;;;;;5019454;28;20112;-75
2023/10/18 06:03:39;;;;;;;12.48;6.00;;;12.00;93.70;;;;;;4989481;28;20118;-75
2023/10/18 06:06:06;;;;;;;15.68;6.15;;;12.00;93.70;;;;;;5009016;28;20851;-74
2023/10/18 06:08:32;;;;;;;11.18;6.10;;;12.00;93.60;;;;;;5004197;28;20044;-76
2023/10/18 06:11:06;;;;;;;14.10;5.80;;;12.10;93.60;;;;;;4999890;28;20684;-75
2023/10/18 06:13:36;;;;;;;15.02;5.57;;;12.10;93.60;;;;;;5003392;28;20029;-75
2023/10/18 06:16:33;;;;;;;10.77;5.78;;;12.10;93.50;;;;;;5011657;28;20036;-75
2023/10/18 06:18:59;;;;;;;11.70;5.50;;;12.20;93.40;;;;;;5005131;28;20053;-75
2023/10/18 06:21:25;;;;;;;16.23;5.72;;;12.20;93.40;;;;;;5027597;28;20033;-74
2023/10/18 06:23:54;;;;;;;12.18;5.55;;;12.20;93.40;;;;;;5003524;28;20057;-75
2023/10/18 06:26:29;;;;;;;14.98;5.32;;;12.10;93.40;;;;;;5020004;28;20082;-75
2023/10/18 06:29:02;;;;;;;13.85;5.70;;;12.20;93.50;;;;;;5005622;28;20049;-76
2023/10/18 06:31:29;;;;;;;10.63;5.20;;;12.20;93.50;;;;;;5014634;28;20036;-76
2023/10/18 06:33:58;;;;;;;13.52;5.97;;;12.20;93.40;;;;;;5011131;28;20038;-76
2023/10/18 06:36:25;;;;;;;11.88;5.13;;;12.20;93.40;;;;;;5003694;28;20417;-76
2023/10/18 06:38:51;;;;;;;11.88;5.65;;;12.30;93.40;;;;;;4998354;28;20206;-76
2023/10/18 06:41:18;;;;;;;14.05;5.43;;;12.30;93.40;;;;;;5014422;28;20045;-76
2023/10/18 06:43:46;;;;;;;13.57;5.50;;;12.20;93.30;;;;;;5010514;28;20406;-76
2023/10/18 06:46:26;;;;;;;20.67;5.25;;;12.30;93.30;;;;;;4994971;28;20122;-74
2023/10/18 06:48:55;;;;;;;14.77;5.70;;;12.30;93.30;;;;;;5004594;28;20120;-75
2023/10/18 06:51:30;;;;;;;10.83;5.37;;;12.30;93.20;;;;;;4994168;28;20044;-75
2023/10/18 06:53:59;;;;;;;12.70;5.57;;;12.30;93.20;;;;;;5014575;28;20501;-75
2023/10/18 06:56:26;;;;;;;10.68;4.97;;;12.30;93.20;;;;;;4999738;28;20068;-75
2023/10/18 06:58:55;;;;;;;14.05;5.25;;;12.40;93.40;;;;;;5003512;28;20061;-75
2023/10/18 07:01:20;;;;;;;13.57;5.07;;;12.40;93.10;;;;;;5000762;28;21529;-76
2023/10/18 07:03:47;;;;;;;13.75;5.28;;;12.40;93.30;;;;;;5008233;28;20022;-75
2023/10/18 07:06:18;;;;;;;14.13;5.30;;;12.50;93.50;;;;;;4995130;28;20103;-74
2023/10/18 07:08:45;;;;;;;13.35;5.70;;;12.40;93.60;;;;;;5006921;28;20497;-75
2023/10/18 07:11:16;;;;;;;9.27;5.07;;;12.40;93.80;;;;;;4982402;28;20034;-75
2023/10/18 07:13:46;;;;;;;12.75;5.80;;;12.40;94.00;;;;;;4998532;28;20044;-75
2023/10/18 07:16:16;;;;;;;13.60;5.15;;;12.40;94.30;;;;;;4995238;28;20068;-75
2023/10/18 07:18:44;;;;;;;11.07;4.70;;;12.40;94.40;;;;;;4993033;28;20033;-75
2023/10/18 07:21:11;;;;;;;14.88;5.68;;;12.30;94.50;;;;;;4981232;28;20512;-74
2023/10/18 07:23:37;;;;;;;17.00;5.93;;;12.30;94.60;;;;;;4992877;28;20039;-74
2023/10/18 07:26:07;;;;;;;15.23;5.43;;;12.30;94.60;;;;;;4980191;28;20039;-75
2023/10/18 07:28:35;;;;;;;13.48;5.32;;;12.30;94.80;;;;;;5000974;28;20131;-75
2023/10/18 07:31:08;;;;;;;20.08;5.43;;;12.30;94.70;;;;;;4989393;28;20925;-73
2023/10/18 07:33:39;;;;;;;11.82;5.25;;;12.40;94.70;;;;;;5006126;28;20045;-74
2023/10/18 07:36:07;;;;;;;10.70;5.38;;;12.40;94.90;;;;;;4987631;28;20037;-75
2023/10/18 07:38:32;;;;;;;14.65;5.95;;;12.40;94.90;;;;;;4996175;28;20037;-77
2023/10/18 07:41:00;;;;;;;10.40;5.38;;;12.40;94.70;;;;;;4999600;28;20421;-74
2023/10/18 07:43:27;;;;;;;16.23;5.70;;;12.50;94.80;;;;;;4995457;28;20099;-79
2023/10/18 07:45:53;;;;;;;15.05;5.07;;;12.60;94.80;;;;;;4994263;28;20030;-76
2023/10/18 07:48:19;;;;;;;14.73;5.72;;;12.60;94.90;;;;;;4994531;28;20034;-74
2023/10/18 07:50:50;;;;;;;12.25;5.82;;;12.70;94.70;;;;;;4997244;28;20038;-76
2023/10/18 07:53:20;;;;;;;13.80;5.93;;;12.70;94.80;;;;;;4990080;28;20057;-78
2023/10/18 07:55:48;;;;;;;13.48;5.68;;;12.80;94.70;;;;;;4996566;28;20124;-73
2023/10/18 07:58:32;;;;;;;14.52;5.28;;;12.80;94.40;;;;;;4981066;28;20131;-78
2023/10/18 08:01:09;;;;;;;12.10;5.07;;;12.90;94.30;;;;;;5000803;28;20120;-74
2023/10/18 08:03:36;;;;;;;14.27;5.68;;;13.00;94.10;;;;;;4991724;28;20908;-76
2023/10/18 08:06:06;;;;;;;16.10;6.07;;;13.10;94.10;;;;;;5002570;28;20571;-77
2023/10/18 08:08:32;;;;;;;25.65;6.45;;;13.10;93.90;;;;;;4983832;28;20116;-78
2023/10/18 08:10:59;;;;;;;19.75;5.78;;;13.30;93.80;;;;;;4996503;28;20124;-76
2023/10/18 08:13:28;;;;;;;20.83;5.85;;;13.40;93.60;;;;;;4998961;28;20040;-77
2023/10/18 08:15:56;;;;;;;11.13;4.93;;;13.50;93.40;;;;;;5012098;28;20111;-77
2023/10/18 08:18:42;;;;;;;14.40;5.35;;;13.60;93.30;;;;;;4991345;28;20120;-79
2023/10/18 08:21:08;;;;;;;15.63;5.13;;;13.70;92.90;;;;;;5016442;28;20025;-77
2023/10/18 08:23:35;;;;;;;15.52;5.63;;;13.80;92.70;;;;;;4991771;28;20027;-77
2023/10/18 08:26:03;;;;;;;12.85;5.18;;;13.80;92.70;;;;;;4993616;28;20056;-79
2023/10/18 08:28:45;;;;;;;12.85;5.07;;;13.70;92.70;;;;;;4999617;28;20056;-82
2023/10/18 08:31:48;;;;;;;12.63;5.40;;;13.70;92.90;;;;;;5019602;28;20076;-84
2023/10/18 08:34:04;;;;;;;13.20;5.22;;;13.70;92.60;;;;;;5012614;28;20056;-78
2023/10/18 08:36:30;;;;;;;15.77;6.25;;;13.70;92.80;;;;;;5019887;28;20034;-78
2023/10/18 08:38:57;;;;;;;17.85;5.50;;;13.60;92.80;;;;;;5008029;28;20033;-77
2023/10/18 08:41:37;;;;;;;11.57;5.15;;;13.60;92.90;;;;;;5026341;28;20037;-76
2023/10/18 08:44:26;;;;;;;10.48;5.03;;;13.60;92.90;;;;;;5025519;28;20156;-81
2023/10/18 08:47:03;;;;;;;12.98;5.68;;;13.60;92.90;;;;;;5017364;28;20090;-80
2023/10/18 08:49:32;;;;;;;14.18;5.50;;;13.60;93.10;;;;;;5000354;28;20056;-77
2023/10/18 08:52:08;;;;;;;12.95;5.22;;;13.60;93.30;;;;;;5012458;28;20120;-78
2023/10/18 08:54:36;;;;;;;12.02;5.28;;;13.60;93.40;;;;;;5009643;28;20123;-78
2023/10/18 08:57:10;;;;;;;17.63;5.57;;;13.60;93.50;;;;;;5013713;28;20029;-76
2023/10/18 08:59:52;;;;;;;15.13;5.35;;;13.60;93.50;;;;;;5010715;28;20049;-78
2023/10/18 09:02:21;;;;;;;14.60;5.40;;;13.60;93.70;;;;;;5014339;28;20068;-75
2023/10/18 09:04:52;;;;;;;16.17;5.85;;;13.70;93.40;;;;;;5005155;28;20379;-81
2023/10/18 09:07:22;;;;;;;13.55;5.68;;;13.70;93.50;;;;;;5009343;28;20038;-77
2023/10/18 09:09:55;;;;;;;13.32;5.55;;;13.80;93.40;;;;;;5005069;28;20056;-76
2023/10/18 09:12:33;;;;;;;16.80;5.32;;;13.80;93.40;;;;;;5008464;28;20033;-77
2023/10/18 09:15:25;;;;;;;13.32;4.95;;;14.00;93.30;;;;;;5002346;28;20992;-77
2023/10/18 09:17:45;;;;;;;14.52;4.82;;;14.10;93.00;;;;;;5010154;28;20176;-79
2023/10/18 09:20:11;;;;;;;12.52;4.80;;;14.20;93.20;;;;;;5016664;28;21141;-79
2023/10/18 09:22:38;;;;;;;13.45;5.47;;;14.20;92.70;;;;;;5031863;28;20040;-80
2023/10/18 09:25:04;;;;;;;17.85;5.45;;;14.30;92.60;;;;;;5023463;28;20093;-79
2023/10/18 09:27:30;;;;;;;12.15;5.80;;;14.30;92.50;;;;;;5026711;28;20041;-79
2023/10/18 09:29:56;;;;;;;14.90;4.80;;;14.50;92.40;;;;;;5028221;28;20022;-80
2023/10/18 09:32:32;;;;;;;8.15;4.30;;;14.60;92.00;;;;;;5032675;28;20049;-79
2023/10/18 09:35:07;;;;;;;13.55;5.22;;;14.70;91.60;;;;;;5005523;28;20022;-78
2023/10/18 09:37:35;;;;;;;12.30;5.20;;;14.80;91.70;;;;;;5008969;28;20026;-81
2023/10/18 09:40:03;;;;;;;11.25;4.22;;;14.70;91.60;;;;;;5005968;28;20076;-80
2023/10/18 09:42:29;;;;;;;11.75;5.20;;;14.80;91.40;;;;;;5000870;28;20076;-80
2023/10/18 09:44:54;;;;;;;11.30;5.10;;;14.80;91.30;;;;;;5003438;28;20036;-81
2023/10/18 09:47:25;;;;;;;13.13;5.05;;;14.80;91.40;;;;;;4994085;28;21868;-80
2023/10/18 09:49:53;;;;;;;10.80;5.00;;;14.80;91.20;;;;;;5007816;28;20038;-80
2023/10/18 09:52:23;;;;;;;13.00;5.00;;;14.80;91.70;;;;;;4995517;28;20155;-80
2023/10/18 09:54:50;;;;;;;10.95;5.15;;;14.90;91.40;;;;;;5015026;28;20059;-80
2023/10/18 09:57:23;;;;;;;12.75;4.95;;;14.90;91.50;;;;;;5005015;28;20033;-84
2023/10/18 09:59:53;;;;;;;11.82;4.63;;;15.00;91.70;;;;;;5015033;28;21975;-83
2023/10/18 10:02:21;;;;;;;12.80;5.60;;;15.00;91.30;;;;;;5008977;28;20041;-82
2023/10/18 10:04:52;;;;;;;14.88;5.30;;;15.00;91.60;;;;;;5013829;28;20037;-82
2023/10/18 10:07:50;;;;;;;9.23;4.72;;;14.90;91.60;;;;;;5014616;28;20153;-84
2023/10/18 10:10:07;;;;;;;17.65;5.03;;;15.00;91.70;;;;;;5024194;28;20033;-80
2023/10/18 10:12:34;;;;;;;12.75;4.53;;;14.90;91.30;;;;;;5026732;28;20030;-84
2023/10/18 10:15:00;;;;;;;14.13;4.43;;;15.00;91.50;;;;;;5035965;28;20045;-88
2023/10/18 10:17:28;;;;;;;9.93;4.63;;;14.90;91.70;;;;;;5012513;23;20247;-74
2023/10/18 10:19:58;;;;;;;10.95;4.68;;;14.90;91.70;;;;;;4997296;28;20037;-73
2023/10/18 10:22:24;;;;;;;;;;;14.90;91.80;;;;;;4992912;28;20033;-71
2023/10/18 10:25:04;;;;;;;6.90;4.15;;;14.90;92.00;;;;;;5003038;28;20675;-72
2023/10/18 10:30:19;;;;;;;12.63;4.82;;;14.90;92.10;;;;;;5000695;28;19924;-72
2023/10/18 10:32:46;;;;;;;10.05;4.15;;;14.80;92.40;;;;;;4985819;28;20045;-72
2023/10/18 10:35:15;;;;;;;13.38;5.18;;;14.80;92.40;;;;;;5004838;28;20064;-72
2023/10/18 10:37:50;;;;;;;12.90;5.27;;;14.90;92.50;;;;;;4992661;28;20033;-78
2023/10/18 10:40:36;;;;;;;16.80;4.90;;;15.10;92.20;;;;;;4997351;28;20067;-75
2023/10/18 10:43:03;;;;;;;13.77;4.88;;;15.10;91.80;;;;;;4988114;28;21478;-74
2023/10/18 10:46:00;;;;;;;13.20;4.13;;;15.30;91.80;;;;;;5000007;28;22020;-73
2023/10/18 10:48:15;;;;;;;11.80;4.28;;;15.60;91.30;;;;;;4990833;28;20486;-72
2023/10/18 10:50:52;;;;;;;9.55;4.15;;;15.90;90.90;;;;;;5000839;28;20741;-72
2023/10/18 10:53:57;;;;;;;12.95;4.30;;;16.00;90.10;;;;;;4987658;28;20371;-74
2023/10/18 10:56:30;;;;;;;14.48;4.97;;;16.00;90.20;;;;;;5011430;28;21420;-73
2023/10/18 10:59:29;;;;;;;10.35;4.00;;;16.10;90.10;;;;;;4980513;28;20090;-74
2023/10/18 11:01:44;;;;;;;10.15;4.45;;;16.20;89.40;;;;;;4996437;28;21714;-72
2023/10/18 11:04:24;;;;;;;9.13;3.78;;;16.20;89.10;;;;;;4993687;28;20092;-73
2023/10/18 11:06:56;;;;;;;10.52;4.15;;;16.20;89.00;;;;;;5007282;28;20033;-73
2023/10/18 11:09:32;;;;;;;9.68;3.95;;;16.20;88.90;;;;;;4997706;28;20120;-72
2023/10/18 11:12:00;;;;;;;7.55;3.92;;;16.30;88.40;;;;;;5002347;28;20037;-72
2023/10/18 11:14:30;;;;;;;13.50;4.50;;;16.20;89.10;;;;;;4991461;28;20034;-71
2023/10/18 11:17:03;;;;;;;11.75;4.20;;;16.10;89.30;;;;;;5000998;28;20049;-73
2023/10/18 11:19:29;;;;;;;12.27;4.80;;;15.90;89.70;;;;;;4982852;28;20036;-73
2023/10/18 11:21:58;;;;;;;12.43;4.75;;;15.60;90.20;;;;;;5001197;28;20642;-72
2023/10/18 11:24:24;;;;;;;8.63;4.45;;;15.40;90.70;;;;;;4993262;28;20127;-72
2023/10/18 11:26:51;;;;;;;10.95;4.15;;;15.30;91.10;;;;;;4997387;28;20037;-74
2023/10/18 11:29:24;;;;;;;10.57;4.20;;;15.20;91.10;;;;;;4990303;28;21736;-73
2023/10/18 11:31:55;;;;;;;7.55;4.15;;;15.20;91.20;;;;;;4994493;28;20359;-75
2023/10/18 11:34:22;;;;;;;10.48;4.70;;;15.30;91.20;;;;;;4986682;28;20041;-72
2023/10/18 11:36:52;;;;;;;9.20;4.22;;;15.30;91.40;;;;;;5004444;28;20749;-75
2023/10/18 11:39:18;;;;;;;15.68;4.95;;;15.30;91.30;;;;;;4988641;28;20087;-73
2023/10/18 11:41:49;;;;;;;12.15;4.28;;;15.30;91.30;;;;;;5002581;28;20025;-73
2023/10/18 11:44:32;;;;;;;12.50;4.40;;;15.40;91.10;;;;;;4982971;28;20025;-71
2023/10/18 11:47:18;;;;;;;11.73;4.78;;;15.40;91.30;;;;;;4998622;28;20729;-71
2023/10/18 11:49:45;;;;;;;13.70;4.57;;;15.40;91.30;;;;;;4986912;28;20540;-72
2023/10/18 11:52:17;;;;;;;11.15;5.93;;;15.30;91.60;;;;;;4991414;28;20029;-71
2023/10/18 11:54:44;;;;;;;11.05;4.47;;;15.30;91.80;;;;;;4988417;28;20037;-71
2023/10/18 11:57:34;;;;;;;14.90;5.03;;;15.30;92.00;;;;;;4999822;28;20050;-71
2023/10/18 12:00:28;;;;;;;14.32;5.32;;;15.20;92.10;;;;;;4990819;28;20041;-72
2023/10/18 12:02:46;;;;;;;15.68;5.18;;;15.00;92.50;;;;;;5000625;28;20038;-72
2023/10/18 12:05:15;;;;;;;11.70;5.32;;;14.90;92.70;;;;;;4990105;28;20142;-72
2023/10/18 12:07:45;;;;;;;11.45;4.95;;;14.90;93.00;;;;;;5005662;28;20033;-71
2023/10/18 12:10:17;;;;;;;15.20;5.10;;;14.90;93.50;;;;;;4997025;28;20167;-71
2023/10/18 12:12:44;;;;;;;17.33;6.00;;;14.80;93.40;;;;;;5002390;28;20061;-72
2023/10/18 12:15:12;;;;;;;12.80;5.53;;;14.70;93.80;;;;;;4989521;28;20037;-74
2023/10/18 12:17:38;;;;;;;14.65;6.28;;;14.70;94.10;;;;;;5006414;28;20751;-72
2023/10/18 12:20:08;;;;;;;12.07;5.78;;;14.50;94.40;;;;;;5005179;28;20052;-74
2023/10/18 12:22:36;;;;;;;16.50;5.72;;;14.50;94.50;;;;;;4996978;28;20148;-74
2023/10/18 12:25:02;;;;;;;18.42;7.10;;;14.40;94.60;;;;;;5003083;28;20026;-71
2023/10/18 12:27:35;;;;;;;13.05;6.50;;;14.30;95.00;;;;;;4996305;28;20467;-72
2023/10/18 12:30:27;;;;;;;13.50;6.13;;;14.30;95.10;;;;;;5011904;28;20124;-71
2023/10/18 12:32:51;;;;;;;13.67;5.57;;;14.30;95.50;;;;;;4987787;28;20123;-72
2023/10/18 12:35:19;;;;;;;14.98;6.30;;;14.20;95.50;;;;;;5002250;28;20084;-69
2023/10/18 12:37:46;;;;;;;15.87;6.77;;;14.10;95.90;;;;;;4987910;28;20735;-71
2023/10/18 12:40:28;;;;;;;20.58;7.05;;;14.00;96.30;;;;;;4989930;28;20041;-70
2023/10/18 12:42:56;;;;;;;16.05;6.88;;;13.90;96.60;;;;;;4992480;28;20029;-70
2023/10/18 12:45:22;;;;;;;17.90;7.80;;;13.80;96.90;;;;;;4989290;28;20596;-71
2023/10/18 12:47:47;;;;;;;18.48;7.05;;;13.70;97.40;;;;;;4987266;28;20033;-70
2023/10/18 12:50:18;;;;;;;18.58;6.85;;;13.70;97.40;;;;;;5004336;28;20056;-71
2023/10/18 12:52:44;;;;;;;20.65;7.07;;;13.70;97.40;;;;;;4982374;28;20161;-71
2023/10/18 12:55:44;;;;;;;18.17;7.35;;;13.70;97.50;;;;;;5003497;28;20042;-74
2023/10/18 12:57:56;;;;;;;15.00;7.57;;;13.70;98.00;;;;;;4990534;28;20412;-70
2023/10/18 13:00:25;;;;;;;12.45;7.28;;;13.70;98.10;;;;;;5003705;28;20594;-71
2023/10/18 13:05:43;;;;;;;19.58;7.57;;;13.70;98.00;;;;;;5002133;28;20067;-72
2023/10/18 13:08:22;;;;;;;17.05;7.35;;;13.80;98.10;;;;;;4989431;28;20052;-70
2023/10/18 13:11:00;;;;;;;27.48;8.07;;;13.90;98.20;;;;;;5007552;28;20461;-71
2023/10/18 13:13:30;;;;;;;18.58;7.22;;;13.90;97.80;;;;;;4981256;28;20537;-72
2023/10/18 13:15:57;;;;;;;15.05;7.43;;;14.00;97.90;;;;;;5004556;28;20061;-69
2023/10/18 13:18:25;;;;;;;19.88;8.27;;;14.00;97.90;;;;;;4993901;28;20037;-70
2023/10/18 13:20:55;;;;;;;15.70;8.05;;;14.00;98.00;;;;;;5003962;28;20130;-71